Time;durP1;ratioP1;P1;durP2;ratioP2;P2;SDS_P1;SDS_P2;PMS_P1;PMS_P2;Temp;Humidity;BMP_temperature;BMP_pressure;BME280_temperature;BME280_humidity;BME280_pressure;Samples;Min_cycle;Max_cycle;Signal;HPM_P1;HPM_P2
2021/04/24 00:00:37;;;;;;;7.60;2.95;;;4.30;99.90;;;;;;3578237;39;20032;-61
2021/04/24 00:03:03;;;;;;;10.20;2.80;;;4.20;99.90;;;;;;3588063;39;20032;-61
2021/04/24 00:05:47;;;;;;;7.43;2.95;;;4.10;99.90;;;;;;3587717;40;20037;-61
2021/04/24 00:08:15;;;;;;;8.57;2.80;;;4.00;99.90;;;;;;3588735;39;20032;-61
2021/04/24 00:10:43;;;;;;;9.63;2.88;;;4.00;99.90;;;;;;3589046;39;20476;-61
2021/04/24 00:13:10;;;;;;;7.35;2.67;;;4.00;99.90;;;;;;3603749;39;20381;-61
2021/04/24 00:15:36;;;;;;;9.27;2.65;;;4.00;99.90;;;;;;3589895;40;20137;-61
2021/04/24 00:18:04;;;;;;;11.70;2.80;;;4.00;99.90;;;;;;3589867;39;20050;-61
2021/04/24 00:20:29;;;;;;;6.25;2.83;;;4.00;99.90;;;;;;3589741;39;20735;-61
2021/04/24 00:22:55;;;;;;;10.23;2.92;;;4.10;99.90;;;;;;3589648;40;20051;-61
2021/04/24 00:25:21;;;;;;;10.48;3.53;;;4.10;99.90;;;;;;3590158;39;20724;-61
2021/04/24 00:27:47;;;;;;;8.65;3.45;;;4.10;99.90;;;;;;3589396;39;20107;-61
2021/04/24 00:30:14;;;;;;;11.93;2.90;;;4.20;99.90;;;;;;3589490;39;20072;-61
2021/04/24 00:32:40;;;;;;;13.43;3.47;;;4.30;99.90;;;;;;3587833;39;20195;-61
2021/04/24 00:35:07;;;;;;;12.48;3.03;;;4.50;99.90;;;;;;3589725;39;20718;-61
2021/04/24 00:37:33;;;;;;;12.13;3.53;;;4.60;99.90;;;;;;3589974;39;20469;-61
2021/04/24 00:39:59;;;;;;;11.27;3.60;;;4.70;99.90;;;;;;3589433;40;20044;-61
2021/04/24 00:42:24;;;;;;;16.92;3.75;;;4.80;99.90;;;;;;3589652;39;20036;-61
2021/04/24 00:44:52;;;;;;;9.20;3.58;;;4.90;99.90;;;;;;3589578;39;20144;-61
2021/04/24 00:47:19;;;;;;;17.52;5.25;;;5.10;99.90;;;;;;3589485;40;20028;-61
2021/04/24 00:49:46;;;;;;;10.57;3.38;;;5.30;99.90;;;;;;3588702;40;20032;-61
2021/04/24 00:52:12;;;;;;;19.67;4.10;;;5.50;99.90;;;;;;3588070;40;20078;-61
2021/04/24 00:54:37;;;;;;;16.38;4.38;;;5.70;99.90;;;;;;3588082;40;20052;-61
2021/04/24 00:57:04;;;;;;;13.80;4.10;;;5.70;99.90;;;;;;3588887;39;20482;-61
2021/04/24 00:59:30;;;;;;;11.60;3.30;;;5.70;99.90;;;;;;3588472;40;20280;-61
2021/04/24 01:01:56;;;;;;;17.27;3.90;;;5.70;99.90;;;;;;3589013;39;20384;-61
2021/04/24 01:04:22;;;;;;;18.58;4.20;;;5.70;99.90;;;;;;3588841;39;20040;-61
2021/04/24 01:06:49;;;;;;;15.38;5.60;;;5.60;99.90;;;;;;3589315;39;20028;-61
2021/04/24 01:09:15;;;;;;;10.40;3.70;;;5.50;99.90;;;;;;3589871;39;20047;-61
2021/04/24 01:11:41;;;;;;;11.05;3.42;;;5.40;99.90;;;;;;3589515;39;20064;-62
2021/04/24 01:14:06;;;;;;;16.13;4.05;;;5.40;99.90;;;;;;3589328;39;20040;-61
2021/04/24 01:16:32;;;;;;;11.98;4.05;;;5.30;99.90;;;;;;3582140;40;20099;-61
2021/04/24 01:18:58;;;;;;;11.35;4.18;;;5.30;99.90;;;;;;3588902;39;20047;-61
2021/04/24 01:21:27;;;;;;;13.65;4.05;;;5.20;99.90;;;;;;3588004;40;20032;-61
2021/04/24 01:23:53;;;;;;;13.75;3.92;;;5.20;99.90;;;;;;3589354;39;20048;-61
2021/04/24 01:26:19;;;;;;;14.13;4.07;;;5.20;99.90;;;;;;3589386;39;20029;-61
2021/04/24 01:28:46;;;;;;;14.98;4.00;;;5.10;99.90;;;;;;3588080;40;20445;-61
2021/04/24 01:31:14;;;;;;;13.40;4.13;;;5.10;99.90;;;;;;3588903;39;20456;-61
2021/04/24 01:33:39;;;;;;;15.93;5.00;;;5.00;99.90;;;;;;3596390;39;20036;-61
2021/04/24 01:36:05;;;;;;;14.35;4.28;;;5.00;99.90;;;;;;3589463;39;20893;-61
2021/04/24 01:38:32;;;;;;;10.00;4.35;;;4.90;99.90;;;;;;3589564;40;20028;-61
2021/04/24 01:40:59;;;;;;;19.80;4.18;;;4.80;99.90;;;;;;3587251;40;20040;-61
2021/04/24 01:43:25;;;;;;;20.83;4.65;;;4.60;99.90;;;;;;3588705;39;20024;-61
2021/04/24 01:45:50;;;;;;;11.57;4.18;;;4.60;99.90;;;;;;3588985;39;20043;-61
2021/04/24 01:48:16;;;;;;;27.48;6.32;;;4.60;99.90;;;;;;3588362;39;20040;-61
2021/04/24 01:50:44;;;;;;;18.30;5.13;;;4.50;99.90;;;;;;3588849;39;20055;-61
2021/04/24 01:53:15;;;;;;;15.98;4.53;;;4.40;99.90;;;;;;3589117;39;20028;-61
2021/04/24 01:55:42;;;;;;;14.35;4.65;;;4.30;99.90;;;;;;3589927;39;20036;-61
2021/04/24 01:58:10;;;;;;;15.05;5.25;;;4.30;99.90;;;;;;3589253;40;20052;-61
2021/04/24 02:00:50;;;;;;;15.05;5.15;;;4.30;99.90;;;;;;3595920;39;20028;-61
2021/04/24 02:03:16;;;;;;;23.20;4.82;;;4.20;99.90;;;;;;3588996;40;20028;-61
2021/04/24 02:05:44;;;;;;;16.15;5.45;;;4.20;99.90;;;;;;3587848;40;20039;-61
2021/04/24 02:08:41;;;;;;;12.13;4.75;;;4.10;99.90;;;;;;3587481;40;20035;-61
2021/04/24 02:11:08;;;;;;;17.98;5.50;;;4.10;99.90;;;;;;3585992;40;20036;-61
2021/04/24 02:13:42;;;;;;;17.73;5.90;;;4.10;99.90;;;;;;3589280;39;20031;-61
2021/04/24 02:16:09;;;;;;;13.63;4.57;;;4.10;99.90;;;;;;3588559;40;20431;-61
2021/04/24 02:18:35;;;;;;;17.08;4.97;;;4.00;99.90;;;;;;3589196;39;20032;-61
2021/04/24 02:21:02;;;;;;;18.48;5.30;;;3.90;99.90;;;;;;3588840;39;20208;-61
2021/04/24 02:23:33;;;;;;;19.88;5.50;;;3.80;99.90;;;;;;3589112;39;20402;-61
2021/04/24 02:25:58;;;;;;;17.58;4.65;;;3.80;99.90;;;;;;3587800;40;20040;-61
2021/04/24 02:28:24;;;;;;;16.05;5.10;;;3.80;99.90;;;;;;3588954;40;20172;-61
2021/04/24 02:30:50;;;;;;;14.00;5.43;;;3.70;99.90;;;;;;3589184;39;20073;-61
2021/04/24 02:33:15;;;;;;;13.43;4.57;;;3.60;99.90;;;;;;3587367;40;20047;-61
2021/04/24 02:35:46;;;;;;;14.63;4.65;;;3.50;99.90;;;;;;3589031;39;20388;-61
2021/04/24 02:38:19;;;;;;;13.10;5.07;;;3.60;99.90;;;;;;3586338;39;20047;-61
2021/04/24 02:40:45;;;;;;;21.17;5.22;;;3.70;99.90;;;;;;3587795;40;20044;-61
2021/04/24 02:43:11;;;;;;;18.40;5.10;;;3.70;99.90;;;;;;3588762;39;20812;-61
2021/04/24 02:45:36;;;;;;;11.95;4.82;;;3.70;99.90;;;;;;3588755;39;20044;-61
2021/04/24 02:48:03;;;;;;;20.08;6.22;;;3.80;99.90;;;;;;3589093;39;20035;-61
2021/04/24 02:50:29;;;;;;;17.40;5.93;;;3.80;99.90;;;;;;3588875;39;20044;-61
2021/04/24 02:52:55;;;;;;;14.10;5.45;;;3.80;99.90;;;;;;3587401;40;20047;-61
2021/04/24 02:55:21;;;;;;;16.25;5.03;;;3.70;99.90;;;;;;3588538;39;20065;-61
2021/04/24 02:57:46;;;;;;;17.38;5.95;;;3.80;99.90;;;;;;3588548;40;20040;-61
2021/04/24 03:00:16;;;;;;;19.38;5.13;;;3.80;99.90;;;;;;3588383;39;20532;-61
2021/04/24 03:02:41;;;;;;;20.77;5.90;;;3.80;99.90;;;;;;3588325;39;20032;-61
2021/04/24 03:05:25;;;;;;;15.15;5.85;;;3.70;99.90;;;;;;3587301;40;20626;-61
2021/04/24 03:07:51;;;;;;;23.25;6.40;;;3.80;99.90;;;;;;3588540;39;20301;-61
2021/04/24 03:10:17;;;;;;;17.50;6.93;;;3.70;99.90;;;;;;3588245;40;20036;-61
2021/04/24 03:12:42;;;;;;;16.20;6.00;;;3.70;99.90;;;;;;3585382;40;20429;-61
2021/04/24 03:15:08;;;;;;;16.33;6.45;;;3.60;99.90;;;;;;3588865;39;20097;-61
2021/04/24 03:17:34;;;;;;;23.92;6.55;;;3.60;99.90;;;;;;3587193;40;20072;-61
2021/04/24 03:20:00;;;;;;;20.05;6.95;;;3.60;99.90;;;;;;3582630;40;20048;-61
2021/04/24 03:22:26;;;;;;;22.67;6.88;;;3.60;99.90;;;;;;3588623;40;20133;-61
2021/04/24 03:24:52;;;;;;;28.77;7.18;;;3.60;99.90;;;;;;3588433;39;20032;-61
2021/04/24 03:27:17;;;;;;;23.98;6.80;;;3.60;99.90;;;;;;3588329;39;20032;-61
2021/04/24 03:29:43;;;;;;;25.98;8.00;;;3.60;99.90;;;;;;3588241;40;20051;-61
2021/04/24 03:32:09;;;;;;;21.80;8.18;;;3.70;99.90;;;;;;3587726;39;20072;-61
2021/04/24 03:34:35;;;;;;;28.92;8.57;;;3.70;99.90;;;;;;3587903;39;20040;-61
2021/04/24 03:37:00;;;;;;;21.42;7.38;;;3.70;99.90;;;;;;3587919;39;20036;-61
2021/04/24 03:39:26;;;;;;;23.35;7.40;;;3.70;99.90;;;;;;3588206;39;20029;-61
2021/04/24 03:41:53;;;;;;;21.60;6.55;;;3.70;99.90;;;;;;3587726;39;20101;-61
2021/04/24 03:44:19;;;;;;;24.60;7.82;;;3.60;99.90;;;;;;3589283;39;20036;-61
2021/04/24 03:46:45;;;;;;;21.67;8.13;;;3.60;99.90;;;;;;3589471;40;20036;-61
2021/04/24 03:49:11;;;;;;;29.05;8.77;;;3.70;99.90;;;;;;3589415;40;20059;-61
2021/04/24 03:51:37;;;;;;;22.17;7.15;;;3.60;99.90;;;;;;3589238;39;20425;-61
2021/04/24 03:54:03;;;;;;;27.85;8.30;;;3.60;99.90;;;;;;3589218;40;20063;-60
2021/04/24 03:56:28;;;;;;;26.30;8.63;;;3.60;99.90;;;;;;3589429;39;20129;-61
2021/04/24 03:58:54;;;;;;;28.38;8.73;;;3.50;99.90;;;;;;3588880;39;20047;-61
2021/04/24 04:01:19;;;;;;;25.33;8.07;;;3.50;99.90;;;;;;3589392;39;20447;-60
2021/04/24 04:03:45;;;;;;;31.40;9.27;;;3.50;99.90;;;;;;3589448;39;20446;-61
2021/04/24 04:06:11;;;;;;;29.08;9.18;;;3.50;99.90;;;;;;3585873;40;20095;-60
2021/04/24 04:08:36;;;;;;;34.78;8.93;;;3.50;99.90;;;;;;3589539;39;20043;-60
2021/04/24 04:11:02;;;;;;;22.65;8.75;;;3.50;99.90;;;;;;3589880;39;20755;-60
2021/04/24 04:13:28;;;;;;;28.90;9.68;;;3.50;99.90;;;;;;3589715;39;20647;-60
2021/04/24 04:15:54;;;;;;;31.40;11.23;;;3.50;99.90;;;;;;3589205;39;20040;-60
2021/04/24 04:18:20;;;;;;;32.25;9.80;;;3.50;99.90;;;;;;3589386;39;20039;-60
2021/04/24 04:20:51;;;;;;;43.92;11.20;;;3.50;99.90;;;;;;3589173;39;20043;-59
2021/04/24 04:23:18;;;;;;;33.00;10.57;;;3.60;99.90;;;;;;3589045;39;20773;-60
2021/04/24 04:25:45;;;;;;;25.67;8.25;;;3.60;99.90;;;;;;3583314;40;20040;-60
2021/04/24 04:28:11;;;;;;;26.95;9.85;;;3.60;99.90;;;;;;3588700;39;20050;-60
2021/04/24 04:30:38;;;;;;;31.40;10.02;;;3.60;99.90;;;;;;3588612;39;20589;-60
2021/04/24 04:33:06;;;;;;;36.97;9.13;;;3.60;99.90;;;;;;3586970;39;20118;-60
2021/04/24 04:35:33;;;;;;;30.27;9.70;;;3.60;99.90;;;;;;3589420;39;20040;-60
2021/04/24 04:37:58;;;;;;;31.55;9.65;;;3.70;99.90;;;;;;3589518;39;20055;-60
2021/04/24 04:40:25;;;;;;;39.25;12.15;;;3.70;99.90;;;;;;3589185;39;20107;-60
2021/04/24 04:42:51;;;;;;;36.67;9.57;;;3.70;99.90;;;;;;3589561;39;20064;-60
2021/04/24 04:45:18;;;;;;;33.25;9.60;;;3.80;99.90;;;;;;3588731;39;20046;-60
2021/04/24 04:47:45;;;;;;;23.30;10.10;;;3.80;99.90;;;;;;3588048;40;20034;-60
2021/04/24 04:50:14;;;;;;;25.23;9.85;;;3.80;99.90;;;;;;3588603;40;20090;-60
2021/04/24 04:52:40;;;;;;;29.00;10.05;;;3.80;99.90;;;;;;3588175;40;20072;-60
2021/04/24 04:55:07;;;;;;;28.98;10.93;;;3.80;99.90;;;;;;3588870;39;20059;-61
2021/04/24 04:57:33;;;;;;;25.77;10.75;;;3.80;99.90;;;;;;3589314;39;20097;-60
2021/04/24 05:00:00;;;;;;;29.08;11.10;;;3.90;99.90;;;;;;3589292;39;20470;-60
2021/04/24 05:02:25;;;;;;;28.40;10.85;;;3.80;99.90;;;;;;3589122;39;20125;-60
2021/04/24 05:04:51;;;;;;;32.53;10.30;;;3.90;99.90;;;;;;3589581;39;20044;-60
2021/04/24 05:07:17;;;;;;;53.35;21.08;;;3.90;99.90;;;;;;3587758;40;20047;-60
2021/04/24 05:09:42;;;;;;;26.48;10.20;;;3.90;99.90;;;;;;3589374;39;20024;-62
2021/04/24 05:12:09;;;;;;;24.60;10.40;;;4.00;99.90;;;;;;3589356;40;20506;-60
2021/04/24 05:14:35;;;;;;;24.17;9.90;;;3.90;99.90;;;;;;3588705;39;20152;-60
2021/04/24 05:17:04;;;;;;;31.15;11.20;;;3.90;99.90;;;;;;3589006;40;20033;-60
2021/04/24 05:19:29;;;;;;;31.58;10.13;;;4.00;99.90;;;;;;3589139;39;20329;-60
2021/04/24 05:21:55;;;;;;;29.25;10.55;;;4.10;99.90;;;;;;3589052;40;20040;-60
2021/04/24 05:24:23;;;;;;;33.97;11.00;;;4.10;99.90;;;;;;3588909;39;20040;-60
2021/04/24 05:26:49;;;;;;;38.83;12.32;;;4.20;99.90;;;;;;3587952;40;20048;-60
2021/04/24 05:29:14;;;;;;;28.58;11.00;;;4.40;99.90;;;;;;3588833;39;20035;-60
2021/04/24 05:31:40;;;;;;;28.90;10.82;;;4.50;99.90;;;;;;3588888;39;20043;-60
2021/04/24 05:34:06;;;;;;;31.25;11.73;;;4.50;99.90;;;;;;3587438;40;20121;-60
2021/04/24 05:36:31;;;;;;;29.08;10.57;;;4.60;99.90;;;;;;3587137;40;20051;-61
2021/04/24 05:38:57;;;;;;;27.20;10.73;;;4.70;99.90;;;;;;3589573;40;20055;-60
2021/04/24 05:41:23;;;;;;;26.85;10.25;;;4.80;99.90;;;;;;3588882;39;20044;-60
2021/04/24 05:43:51;;;;;;;27.48;10.05;;;5.00;99.90;;;;;;3587645;40;20051;-60
2021/04/24 05:46:17;;;;;;;27.25;10.15;;;5.20;99.90;;;;;;3589384;39;20865;-60
2021/04/24 05:48:43;;;;;;;32.28;10.27;;;5.30;99.90;;;;;;3589082;39;20040;-60
2021/04/24 05:51:09;;;;;;;28.98;10.23;;;5.30;99.90;;;;;;3588851;39;20564;-61
2021/04/24 05:53:35;;;;;;;32.70;10.27;;;5.40;99.90;;;;;;3588377;39;20032;-60
2021/04/24 05:56:01;;;;;;;30.83;11.18;;;5.60;99.90;;;;;;3588830;39;20032;-61
2021/04/24 05:58:27;;;;;;;24.48;10.68;;;5.80;99.90;;;;;;3585869;40;20048;-60
2021/04/24 06:00:53;;;;;;;23.63;9.40;;;5.90;99.90;;;;;;3588536;39;20067;-60
2021/04/24 06:03:18;;;;;;;23.90;9.23;;;5.90;99.90;;;;;;3577606;40;20076;-60
2021/04/24 06:05:44;;;;;;;26.48;9.52;;;6.00;99.90;;;;;;3588715;39;20032;-60
2021/04/24 06:08:09;;;;;;;32.03;11.68;;;6.20;99.90;;;;;;3586187;40;20773;-61
2021/04/24 06:10:35;;;;;;;33.92;11.85;;;6.30;99.90;;;;;;3588696;39;20634;-61
2021/04/24 06:13:01;;;;;;;25.35;9.80;;;6.40;99.90;;;;;;3588855;39;20046;-60
2021/04/24 06:15:27;;;;;;;21.23;9.90;;;6.40;99.90;;;;;;3588514;40;20082;-60
2021/04/24 06:17:53;;;;;;;29.38;10.02;;;6.40;99.90;;;;;;3589070;39;20700;-60
2021/04/24 06:20:18;;;;;;;24.65;9.23;;;6.40;99.90;;;;;;3588736;40;20301;-60
2021/04/24 06:22:45;;;;;;;28.95;10.43;;;6.60;99.90;;;;;;3589116;39;20043;-60
2021/04/24 06:25:17;;;;;;;21.08;9.35;;;6.70;99.90;;;;;;3588974;39;20056;-60
2021/04/24 06:27:44;;;;;;;25.92;10.38;;;6.80;99.90;;;;;;3588483;39;20616;-60
2021/04/24 06:30:13;;;;;;;21.77;9.63;;;6.90;99.90;;;;;;3588455;39;20047;-60
2021/04/24 06:32:39;;;;;;;22.50;8.98;;;6.80;99.90;;;;;;3588326;39;20036;-60
2021/04/24 06:35:06;;;;;;;21.40;9.52;;;6.90;99.90;;;;;;3588151;40;20141;-60
2021/04/24 06:37:32;;;;;;;25.52;9.05;;;6.80;99.90;;;;;;3588926;39;20032;-60
2021/04/24 06:39:58;;;;;;;29.13;10.63;;;6.80;99.90;;;;;;3589162;40;20527;-60
2021/04/24 06:42:24;;;;;;;24.55;9.63;;;6.90;99.90;;;;;;3588852;39;20068;-60
2021/04/24 06:44:50;;;;;;;19.90;8.68;;;6.80;99.90;;;;;;3586167;40;20043;-60
2021/04/24 06:47:16;;;;;;;23.98;8.93;;;6.80;99.90;;;;;;3589012;39;20035;-60
2021/04/24 06:49:42;;;;;;;21.50;8.40;;;6.60;99.90;;;;;;3588691;39;20040;-60
2021/04/24 06:52:08;;;;;;;20.55;8.52;;;6.80;99.90;;;;;;3588777;39;20036;-60
2021/04/24 06:54:35;;;;;;;22.83;9.15;;;6.70;99.90;;;;;;3585866;39;20539;-60
2021/04/24 06:57:01;;;;;;;22.52;8.32;;;6.80;99.90;;;;;;3589130;39;20033;-60
2021/04/24 06:59:27;;;;;;;23.58;9.30;;;6.80;99.90;;;;;;3588707;39;20042;-59
2021/04/24 07:01:52;;;;;;;20.70;8.65;;;6.90;99.90;;;;;;3586953;40;20408;-59
2021/04/24 07:04:19;;;;;;;21.75;8.80;;;6.90;99.90;;;;;;3588293;39;20036;-60
2021/04/24 07:06:45;;;;;;;23.08;8.80;;;6.70;99.90;;;;;;3588529;39;20029;-59
2021/04/24 07:09:10;;;;;;;20.58;7.90;;;6.70;99.90;;;;;;3588757;39;20048;-59
2021/04/24 07:11:37;;;;;;;21.73;8.50;;;6.50;99.90;;;;;;3588263;39;20040;-60
2021/04/24 07:14:03;;;;;;;25.50;9.90;;;6.60;99.90;;;;;;3588681;39;20129;-59
2021/04/24 07:16:28;;;;;;;27.33;11.63;;;6.80;99.90;;;;;;3588184;39;20102;-60
2021/04/24 07:18:54;;;;;;;27.90;11.43;;;7.10;99.90;;;;;;3589307;40;20852;-60
2021/04/24 07:21:20;;;;;;;17.33;7.88;;;7.20;99.90;;;;;;3589579;40;20036;-59
2021/04/24 07:23:47;;;;;;;25.40;9.73;;;7.40;99.90;;;;;;3588690;39;20052;-59
2021/04/24 07:26:13;;;;;;;19.60;8.10;;;7.20;99.90;;;;;;3589210;39;20044;-60
2021/04/24 07:28:39;;;;;;;20.38;8.35;;;7.50;99.90;;;;;;3589077;39;20028;-60
2021/04/24 07:31:05;;;;;;;28.92;17.92;;;7.60;99.90;;;;;;3588738;40;20759;-59
2021/04/24 07:33:31;;;;;;;23.50;11.38;;;7.70;99.90;;;;;;3589260;39;20623;-60
2021/04/24 07:35:58;;;;;;;24.10;10.18;;;7.80;99.90;;;;;;3588827;40;20055;-59
2021/04/24 07:38:24;;;;;;;20.92;9.43;;;7.80;99.90;;;;;;3589250;39;20965;-60
2021/04/24 07:40:50;;;;;;;26.70;11.48;;;8.10;99.90;;;;;;3588689;39;20052;-60
2021/04/24 07:43:16;;;;;;;68.82;41.50;;;8.40;99.90;;;;;;3587878;40;20040;-60
2021/04/24 07:45:42;;;;;;;18.00;8.27;;;8.50;99.90;;;;;;3589325;39;20156;-60
2021/04/24 07:48:08;;;;;;;20.23;10.13;;;8.20;99.90;;;;;;3589418;39;20718;-60
2021/04/24 07:50:34;;;;;;;15.98;7.82;;;8.10;99.90;;;;;;3589235;39;20196;-60
2021/04/24 07:53:00;;;;;;;86.55;40.75;;;8.30;99.90;;;;;;3588774;39;20028;-60
2021/04/24 07:55:29;;;;;;;16.35;8.05;;;8.50;99.90;;;;;;3589541;40;20047;-60
2021/04/24 07:57:55;;;;;;;19.45;7.47;;;8.80;99.90;;;;;;3588719;40;20035;-60
2021/04/24 08:00:22;;;;;;;17.90;6.20;;;9.00;99.90;;;;;;3588757;39;20029;-60
2021/04/24 08:02:48;;;;;;;20.65;6.78;;;9.30;99.90;;;;;;3589041;39;20043;-60
2021/04/24 08:05:17;;;;;;;19.73;9.07;;;9.30;99.90;;;;;;3587607;40;20028;-61
2021/04/24 08:07:43;;;;;;;21.30;8.20;;;9.60;99.90;;;;;;3587600;40;20653;-61
2021/04/24 08:10:10;;;;;;;14.13;5.35;;;9.90;99.90;;;;;;3588565;40;20031;-60
2021/04/24 08:12:36;;;;;;;17.30;6.15;;;10.00;99.90;;;;;;3588639;39;20044;-60
2021/04/24 08:15:03;;;;;;;14.75;8.10;;;9.80;99.90;;;;;;3587545;40;20047;-61
2021/04/24 08:17:29;;;;;;;16.63;6.47;;;9.60;99.90;;;;;;3587056;40;20082;-61
2021/04/24 08:19:54;;;;;;;22.90;6.75;;;9.80;99.90;;;;;;3587541;40;20667;-61
2021/04/24 08:22:20;;;;;;;14.52;7.28;;;9.90;99.90;;;;;;3588402;39;20633;-61
2021/04/24 08:24:46;;;;;;;17.90;6.18;;;9.90;99.90;;;;;;3588622;39;20036;-61
2021/04/24 08:27:11;;;;;;;15.80;5.88;;;9.70;99.90;;;;;;3588158;39;20723;-61
2021/04/24 08:29:37;;;;;;;11.35;5.60;;;9.60;99.90;;;;;;3588908;39;20036;-61
2021/04/24 08:32:04;;;;;;;12.20;4.90;;;9.80;99.90;;;;;;3588674;39;20043;-61
2021/04/24 08:34:31;;;;;;;10.82;5.03;;;10.00;99.90;;;;;;3577935;39;20040;-62
2021/04/24 08:36:57;;;;;;;15.27;4.90;;;10.20;99.90;;;;;;3588520;39;20511;-61
2021/04/24 08:39:22;;;;;;;15.25;5.63;;;10.20;99.90;;;;;;3588692;39;20036;-61
2021/04/24 08:41:48;;;;;;;11.98;5.03;;;10.60;99.90;;;;;;3588632;39;20036;-61
2021/04/24 08:44:17;;;;;;;11.25;4.68;;;11.00;99.60;;;;;;3587280;40;20047;-61
2021/04/24 08:46:50;;;;;;;11.52;4.50;;;11.10;97.70;;;;;;3588350;40;20077;-60
2021/04/24 08:49:18;;;;;;;13.25;5.10;;;11.20;97.80;;;;;;3588323;40;20563;-61
2021/04/24 08:51:44;;;;;;;11.50;4.30;;;11.30;98.20;;;;;;3588785;39;20082;-61
2021/04/24 08:54:10;;;;;;;11.43;4.40;;;11.60;97.40;;;;;;3589115;40;20036;-61
2021/04/24 08:56:36;;;;;;;16.33;4.72;;;11.60;96.40;;;;;;3589371;39;20044;-61
2021/04/24 08:59:01;;;;;;;14.43;3.85;;;11.60;97.00;;;;;;3589530;39;20054;-60
2021/04/24 09:01:27;;;;;;;11.20;4.55;;;11.50;95.90;;;;;;3587432;39;20538;-61
2021/04/24 09:03:54;;;;;;;15.07;5.28;;;11.60;95.40;;;;;;3589528;39;20129;-61
2021/04/24 09:06:21;;;;;;;8.52;4.05;;;11.90;95.90;;;;;;3589177;39;20032;-61
2021/04/24 09:08:55;;;;;;;10.77;4.25;;;12.40;93.90;;;;;;3590134;39;20043;-61
2021/04/24 09:11:21;;;;;;;10.90;3.53;;;12.40;93.30;;;;;;3588786;40;20036;-61
2021/04/24 09:14:09;;;;;;;9.23;3.35;;;12.60;92.70;;;;;;3589673;39;20098;-61
2021/04/24 09:16:35;;;;;;;5.22;2.75;;;12.10;90.30;;;;;;3588807;40;20048;-61
2021/04/24 09:19:01;;;;;;;11.07;4.43;;;12.10;90.20;;;;;;3589074;40;20040;-61
2021/04/24 09:21:30;;;;;;;10.70;3.97;;;12.40;88.00;;;;;;3589260;39;20400;-61
2021/04/24 09:23:56;;;;;;;14.48;4.65;;;12.80;88.50;;;;;;3587876;40;20055;-61
2021/04/24 09:26:27;;;;;;;11.32;4.72;;;12.60;88.40;;;;;;3589110;39;20048;-61
2021/04/24 09:29:04;;;;;;;9.73;4.05;;;12.20;90.70;;;;;;3589162;39;20032;-61
2021/04/24 09:31:32;;;;;;;7.70;3.35;;;12.30;91.30;;;;;;3588451;40;20055;-61
2021/04/24 09:34:02;;;;;;;10.68;3.90;;;12.30;91.20;;;;;;3589150;40;20394;-61
2021/04/24 09:36:37;;;;;;;7.55;3.60;;;12.20;91.00;;;;;;3588465;40;20043;-61
2021/04/24 09:39:10;;;;;;;9.02;4.00;;;12.10;91.90;;;;;;3588895;40;20039;-61
2021/04/24 09:41:41;;;;;;;11.90;3.65;;;12.00;91.30;;;;;;3587999;39;20028;-60
2021/04/24 09:44:18;;;;;;;8.57;4.00;;;11.70;91.90;;;;;;3589184;39;20417;-61
2021/04/24 09:46:51;;;;;;;14.10;4.55;;;11.70;93.10;;;;;;3588817;39;20157;-60
2021/04/24 09:49:17;;;;;;;11.63;4.95;;;11.70;93.90;;;;;;3588779;39;20040;-61
2021/04/24 09:51:46;;;;;;;9.48;4.07;;;11.80;92.70;;;;;;3588334;40;20051;-61
2021/04/24 09:54:12;;;;;;;12.50;4.53;;;11.70;92.20;;;;;;3588615;39;20064;-61
2021/04/24 09:56:38;;;;;;;11.93;4.82;;;11.90;92.00;;;;;;3588313;39;20032;-61
2021/04/24 09:59:07;;;;;;;14.57;4.60;;;12.10;91.40;;;;;;3587305;40;20035;-62
2021/04/24 10:01:33;;;;;;;11.82;6.82;;;12.30;91.00;;;;;;3588836;39;20649;-61
2021/04/24 10:04:02;;;;;;;15.20;4.90;;;12.20;91.30;;;;;;3588465;39;20036;-61
2021/04/24 10:06:31;;;;;;;19.30;11.80;;;12.40;91.70;;;;;;3588032;40;20049;-62
2021/04/24 10:09:30;;;;;;;31.30;15.88;;;12.80;91.20;;;;;;3588707;39;20724;-61
2021/04/24 10:12:08;;;;;;;23.45;9.75;;;12.90;86.20;;;;;;3588124;40;20121;-61
2021/04/24 10:14:49;;;;;;;11.10;4.90;;;12.50;88.30;;;;;;3594898;39;20036;-61
2021/04/24 10:17:20;;;;;;;13.07;6.38;;;12.10;91.40;;;;;;3587184;40;20081;-61
2021/04/24 10:19:48;;;;;;;14.77;4.45;;;12.00;92.30;;;;;;3587899;39;20036;-61
2021/04/24 10:22:19;;;;;;;13.63;3.95;;;12.10;93.40;;;;;;3588787;40;20035;-61
2021/04/24 10:24:45;;;;;;;21.17;8.75;;;12.30;92.50;;;;;;3588516;39;20036;-61
2021/04/24 10:27:13;;;;;;;11.63;4.15;;;12.30;91.90;;;;;;3588550;39;20044;-61
2021/04/24 10:29:41;;;;;;;9.18;3.53;;;13.00;91.30;;;;;;3588457;39;20456;-61
2021/04/24 10:32:06;;;;;;;8.05;3.60;;;13.30;88.60;;;;;;3588046;39;20052;-61
2021/04/24 10:34:32;;;;;;;8.85;3.55;;;13.20;85.90;;;;;;3587572;40;20602;-61
2021/04/24 10:36:58;;;;;;;9.30;4.25;;;13.20;82.30;;;;;;3588205;39;20054;-61
2021/04/24 10:39:26;;;;;;;11.98;3.70;;;13.10;84.20;;;;;;3588732;39;20043;-61
2021/04/24 10:41:54;;;;;;;10.60;3.08;;;13.00;78.90;;;;;;3595283;39;20680;-61
2021/04/24 10:44:22;;;;;;;8.18;3.60;;;13.00;77.60;;;;;;3587005;40;20052;-61
2021/04/24 10:46:50;;;;;;;13.82;4.13;;;13.30;76.90;;;;;;3588100;39;20028;-61
2021/04/24 10:49:25;;;;;;;6.95;3.70;;;13.80;75.50;;;;;;3588071;40;20154;-60
2021/04/24 10:51:55;;;;;;;18.80;10.70;;;13.60;74.40;;;;;;3588451;39;20269;-61
2021/04/24 10:54:22;;;;;;;11.52;3.20;;;13.40;76.90;;;;;;3587944;39;20035;-61
2021/04/24 10:56:48;;;;;;;11.68;3.20;;;13.00;77.60;;;;;;3588370;39;20028;-61
2021/04/24 10:59:23;;;;;;;10.25;3.30;;;12.60;80.50;;;;;;3588564;39;20388;-61
2021/04/24 11:02:10;;;;;;;10.52;3.80;;;12.30;81.10;;;;;;3588232;39;20129;-61
2021/04/24 11:04:46;;;;;;;12.02;4.30;;;12.20;81.60;;;;;;3587757;40;20048;-61
2021/04/24 11:07:23;;;;;;;15.40;5.10;;;12.40;77.80;;;;;;3587372;40;20032;-61
2021/04/24 11:10:11;;;;;;;16.92;3.78;;;12.60;77.30;;;;;;3585986;39;20034;-62
2021/04/24 11:13:00;;;;;;;10.93;4.55;;;12.80;76.90;;;;;;3587035;40;20028;-62
2021/04/24 11:15:26;;;;;;;10.98;4.25;;;12.90;77.80;;;;;;3588077;40;20032;-60
2021/04/24 11:17:54;;;;;;;12.13;3.80;;;12.70;78.50;;;;;;3587479;39;20200;-60
2021/04/24 11:20:51;;;;;;;10.52;3.63;;;12.80;77.50;;;;;;3587957;39;20032;-60
2021/04/24 11:23:37;;;;;;;8.68;3.10;;;13.10;77.70;;;;;;3583476;39;20036;-60
2021/04/24 11:26:12;;;;;;;13.35;3.75;;;13.80;75.40;;;;;;3586338;39;20028;-61
2021/04/24 11:28:56;;;;;;;8.48;3.20;;;14.40;71.70;;;;;;3587725;40;20420;-60
2021/04/24 11:31:50;;;;;;;9.35;3.70;;;14.80;66.50;;;;;;3587195;40;20040;-61
2021/04/24 11:34:42;;;;;;;9.35;3.30;;;15.20;65.50;;;;;;3585336;40;20039;-61
2021/04/24 11:37:31;;;;;;;7.13;3.10;;;15.50;61.90;;;;;;3585902;40;20133;-60
2021/04/24 11:40:15;;;;;;;8.07;3.55;;;15.80;58.50;;;;;;3587418;40;20050;-61
2021/04/24 11:42:51;;;;;;;10.43;3.10;;;16.30;58.70;;;;;;3588106;40;20103;-60
2021/04/24 11:45:46;;;;;;;7.57;2.78;;;16.30;55.70;;;;;;3588348;39;20039;-60
2021/04/24 11:48:14;;;;;;;8.60;4.10;;;16.50;54.50;;;;;;3588072;40;20033;-61
2021/04/24 11:50:41;;;;;;;6.13;2.70;;;16.10;55.90;;;;;;3584671;40;20078;-61
2021/04/24 11:53:08;;;;;;;8.50;2.67;;;15.60;56.50;;;;;;3585367;40;20036;-60
2021/04/24 11:55:34;;;;;;;7.65;2.75;;;15.30;58.60;;;;;;3587003;40;20456;-61
2021/04/24 11:58:06;;;;;;;7.95;3.30;;;15.30;55.70;;;;;;3577962;40;20036;-60
2021/04/24 12:00:33;;;;;;;10.77;4.05;;;15.10;56.70;;;;;;3588311;39;20033;-61
2021/04/24 12:02:59;;;;;;;18.42;6.15;;;15.20;57.30;;;;;;3585290;40;20067;-61
2021/04/24 12:05:25;;;;;;;9.25;4.18;;;14.90;56.80;;;;;;3590483;39;20283;-60
2021/04/24 12:07:51;;;;;;;14.15;4.55;;;14.40;59.00;;;;;;3590036;39;20048;-60
2021/04/24 12:10:19;;;;;;;14.30;5.28;;;14.30;60.10;;;;;;3590009;39;20894;-61
2021/04/24 12:12:46;;;;;;;11.02;3.28;;;14.40;60.10;;;;;;3589403;40;20113;-60
2021/04/24 12:15:26;;;;;;;12.75;3.70;;;14.30;58.80;;;;;;3589393;39;20032;-60
2021/04/24 12:17:57;;;;;;;11.57;3.88;;;14.40;59.10;;;;;;3589502;40;20024;-60
2021/04/24 12:20:24;;;;;;;12.82;3.58;;;14.00;62.40;;;;;;3588746;39;20428;-60
2021/04/24 12:22:50;;;;;;;8.73;3.22;;;13.70;62.10;;;;;;3588293;40;20035;-60
2021/04/24 12:25:17;;;;;;;7.25;3.20;;;13.70;62.00;;;;;;3588280;39;20425;-60
2021/04/24 12:27:48;;;;;;;11.38;3.83;;;13.60;61.90;;;;;;3586586;40;20041;-60
2021/04/24 12:30:19;;;;;;;10.13;3.50;;;13.40;64.20;;;;;;3587961;40;20055;-60
2021/04/24 12:33:05;;;;;;;10.18;3.08;;;13.80;62.00;;;;;;3588239;40;20046;-60
2021/04/24 12:35:42;;;;;;;6.85;2.92;;;13.90;61.50;;;;;;3587899;40;20040;-60
2021/04/24 12:38:20;;;;;;;10.43;3.50;;;13.70;62.00;;;;;;3588235;40;20040;-60
2021/04/24 12:40:49;;;;;;;10.20;4.07;;;13.70;62.40;;;;;;3587498;40;20043;-60
2021/04/24 12:43:21;;;;;;;12.70;4.22;;;13.50;64.80;;;;;;3588197;39;20065;-60
2021/04/24 12:45:48;;;;;;;10.32;4.35;;;13.10;64.70;;;;;;3584866;40;20040;-60
2021/04/24 12:48:20;;;;;;;9.23;3.78;;;13.00;63.80;;;;;;3588453;39;20040;-60